ADDS METAR Data INFO
IDs: Format: Raw Decoded Include TAF

Data at: 2034 UTC 16 Dec 2017

KLVK 161953Z 35012G20KT 10SM CLR 17/M08 A2993 RMK AO2 PK WND 35026/1859 SLP133 T01671078
KLVK 161853Z 35018G34KT 10SM CLR 15/M06 A2994 RMK AO2 PK WND 01034/1846 SLP136 T01501061
KLVK 161753Z 36006KT 10SM CLR 14/M03 A2996 RMK AO2 SLP143 T01391033 10139 20022 50004
KLVK 161653Z 00000KT 10SM CLR 12/M01 A2997 RMK AO2 SLP147 T01171011
KLVK 161553Z 30004KT 10SM CLR 06/01 A2994 RMK AO2 SLP140 T00610011
KLVK 161453Z 24003KT 10SM CLR 07/02 A2994 RMK AO2 SLP140 T00720022 55006
KLVK 161353Z AUTO 00000KT 5SM BR CLR 05/03 A2994 RMK AO2 SLP139 T00500028
KLVK 161317Z AUTO 00000KT 3SM BR CLR 04/03 A2994 RMK AO2 T00440028
KLVK 161253Z AUTO 00000KT 2 1/2SM BR CLR 03/02 A2995 RMK AO2 SLP140 T00280017
KLVK 161153Z AUTO 18003KT 2 1/2SM BR CLR 04/03 A2996 RMK AO2 SLP146 T00390028 10106 20033 56010
KLVK 161053Z AUTO 00000KT 2 1/2SM BR CLR 04/03 A2996 RMK AO2 SLP146 T00390028
KLVK 160953Z AUTO 08003KT 2 1/2SM BR CLR 05/04 A2998 RMK AO2 SLP152 T00500039
KLVK 160853Z AUTO 06003KT 3SM BR CLR 05/04 A2999 RMK AO2 SLP156 T00500044 58012
KLVK 160753Z AUTO 00000KT 4SM BR CLR 08/07 A3001 RMK AO2 SLP162 T00830067 401610006
KLVK 160653Z AUTO 00000KT 4SM HZ CLR 10/07 A3002 RMK AO2 SLP165 T01000067
KLVK 160553Z AUTO 35005KT 4SM HZ CLR 11/07 A3003 RMK AO2 SLP168 T01060067 10150 20094 58000
KLVK 160453Z 00000KT 5SM HZ CLR 11/06 A3003 RMK AO2 SLP168 T01060061
KLVK 160353Z 00000KT 4SM HZ CLR 11/06 A3004 RMK AO2 SLP172 T01110061
KLVK 160253Z 00000KT 4SM HZ CLR 12/06 A3003 RMK AO2 SLP169 T01170061 58005
KLVK 160153Z 29004KT 5SM HZ CLR 13/07 A3005 RMK AO2 SLP175 T01280067
KLVK 160053Z 25003KT 5SM HZ CLR 14/04 A3005 RMK AO2 SLP175 T01390044
KLVK 152353Z 26003KT 4SM HZ CLR 16/04 A3004 RMK AO2 SLP173 T01560044 10161 20072 56018
KLVK 152253Z 00000KT 4SM HZ CLR 16/04 A3005 RMK AO2 SLP175 T01610039
KLVK 152153Z 23004KT 4SM HZ CLR 16/04 A3007 RMK AO2 SLP182 T01610044
KLVK 152053Z 26003KT 4SM HZ CLR 16/04 A3010 RMK AO2 SLP191 T01560044 58034
KLVK 151953Z 22003KT 4SM HZ CLR 12/04 A3013 RMK AO2 SLP202 T01220039
KLVK 151853Z 00000KT 7SM CLR 11/03 A3017 RMK AO2 SLP217 T01060033
KLVK 151753Z 00000KT 7SM CLR 07/03 A3020 RMK AO2 SLP227 T00720033 10072 20006 53006
KLVK 151653Z 00000KT 7SM CLR 04/02 A3020 RMK AO2 SLP227 T00440022
KLVK 151553Z 00000KT 5SM BR CLR 03/01 A3017 RMK AO2 SLP218 T00280006
KLVK 151453Z 10003KT 8SM CLR 02/M01 A3018 RMK AO2 SLP220 T00171011 56002
KLVK 151353Z AUTO 00000KT 8SM CLR 02/M01 A3018 RMK AO2 SLP221 T00171006
KLVK 151253Z AUTO 00000KT 6SM BR CLR 02/M01 A3017 RMK AO2 SLP218 T00171006
KLVK 151153Z AUTO 00000KT 6SM HZ CLR 02/M01 A3018 RMK AO2 SLP221 T00221006 10067 20017 51006
KLVK 151053Z AUTO 00000KT 6SM HZ CLR 03/00 A3018 RMK AO2 SLP221 T00280000
KLVK 150953Z AUTO 00000KT 6SM HZ CLR 03/00 A3019 RMK AO2 SLP222 T00330000
KLVK 150853Z AUTO 00000KT 6SM HZ CLR 03/01 A3017 RMK AO2 SLP216 T00330006 50000